Time;durP1;ratioP1;P1;durP2;ratioP2;P2;SDS_P1;SDS_P2;PMS_P1;PMS_P2;Temp;Humidity;BMP_temperature;BMP_pressure;BME280_temperature;BME280_humidity;BME280_pressure;Samples;Min_cycle;Max_cycle;Signal;HPM_P1;HPM_P2
2022/06/09 00:01:46;;;;;;;10.10;2.42;;;15.90;75.70;15.90;98517.00;;;;4921657;28;87863;-60
2022/06/09 00:04:31;;;;;;;7.68;2.40;;;15.90;76.10;15.80;98511.00;;;;4923323;28;87635;-60
2022/06/09 00:07:24;;;;;;;8.27;2.58;;;15.80;76.10;15.90;98511.00;;;;4922898;28;88329;-60
2022/06/09 00:10:13;;;;;;;5.60;2.78;;;15.90;76.40;15.80;98503.00;;;;4907708;28;87110;-59
2022/06/09 00:12:39;;;;;;;8.75;3.78;;;15.80;76.50;15.80;98505.00;;;;4924977;28;88975;-60
2022/06/09 00:15:09;;;;;;;8.50;2.33;;;15.80;76.50;15.80;98502.00;;;;4919000;28;88489;-60
2022/06/09 00:17:35;;;;;;;8.55;2.60;;;15.80;76.70;15.80;98493.00;;;;4922089;28;87188;-60
2022/06/09 00:20:03;;;;;;;4.53;2.30;;;15.80;76.90;15.80;98507.00;;;;4907146;28;87081;-62
2022/06/09 00:22:29;;;;;;;6.75;2.60;;;15.90;76.90;15.90;98503.00;;;;4924914;28;87569;-60
2022/06/09 00:24:56;;;;;;;8.10;2.40;;;15.80;76.70;15.80;98507.00;;;;4925435;28;86259;-60
2022/06/09 00:27:22;;;;;;;15.80;3.10;;;15.80;76.90;15.80;98507.00;;;;4925543;28;86934;-60
2022/06/09 00:29:48;;;;;;;7.05;3.28;;;15.80;76.90;15.80;98498.00;;;;4907676;28;87625;-60
2022/06/09 00:32:15;;;;;;;9.23;3.38;;;15.80;77.30;15.80;98494.00;;;;4922555;28;88710;-60
2022/06/09 00:34:41;;;;;;;9.07;2.95;;;15.80;77.30;15.80;98499.00;;;;4924765;28;88812;-60
2022/06/09 00:37:07;;;;;;;13.88;3.35;;;15.80;77.50;15.90;98505.00;;;;4924826;28;87032;-60
2022/06/09 00:39:33;;;;;;;11.05;3.38;;;15.90;77.70;15.90;98505.00;;;;4924299;28;87380;-60
2022/06/09 00:41:59;;;;;;;10.40;3.83;;;15.90;77.90;15.90;98497.00;;;;4922381;28;88286;-60
2022/06/09 00:44:30;;;;;;;8.75;3.65;;;15.90;78.00;15.90;98499.00;;;;4903418;28;87408;-60
2022/06/09 00:47:18;;;;;;;9.87;4.13;;;15.90;78.30;15.90;98488.00;;;;4919420;28;87907;-60
2022/06/09 00:50:11;;;;;;;11.13;5.10;;;15.90;78.60;15.90;98500.00;;;;4923121;28;86554;-60
2022/06/09 00:52:44;;;;;;;14.13;4.22;;;15.80;78.90;15.80;98489.00;;;;4906934;28;87761;-60
2022/06/09 00:55:17;;;;;;;14.30;4.88;;;15.80;79.20;15.80;98490.00;;;;4924920;28;88270;-60
2022/06/09 00:57:56;;;;;;;13.73;4.25;;;15.80;79.70;15.70;98490.00;;;;4906422;28;87974;-60
2022/06/09 01:00:29;;;;;;;15.93;5.15;;;15.80;79.80;15.70;98484.00;;;;4924697;28;87586;-61
2022/06/09 01:02:59;;;;;;;13.00;4.60;;;15.70;80.00;15.70;98491.00;;;;4924021;28;87497;-61
2022/06/09 01:05:30;;;;;;;14.48;5.30;;;15.70;80.40;15.60;98491.00;;;;4907208;28;87562;-61
2022/06/09 01:08:02;;;;;;;18.40;4.55;;;15.60;80.70;15.50;98485.00;;;;4900844;28;87313;-61
2022/06/09 01:10:29;;;;;;;14.07;4.45;;;15.60;81.10;15.50;98483.00;;;;4901597;28;87029;-61
2022/06/09 01:12:58;;;;;;;18.08;4.82;;;15.60;81.50;15.60;98485.00;;;;4925040;28;87420;-61
2022/06/09 01:15:39;;;;;;;11.98;4.60;;;15.60;81.50;15.60;98487.00;;;;4908130;28;87229;-61
2022/06/09 01:18:19;;;;;;;18.17;4.70;;;15.70;81.60;15.60;98488.00;;;;4892425;28;87245;-61
2022/06/09 01:21:21;;;;;;;11.02;4.10;;;15.60;81.50;15.60;98492.00;;;;4888596;28;87592;-61
2022/06/09 01:24:29;;;;;;;14.25;4.32;;;15.70;81.60;15.60;98482.00;;;;4916848;28;88809;-61
2022/06/09 01:27:13;;;;;;;12.45;4.03;;;15.70;81.60;15.60;98489.00;;;;4917502;28;89469;-60
2022/06/09 01:29:46;;;;;;;10.32;4.35;;;15.70;82.10;15.60;98493.00;;;;4918849;28;87570;-60
2022/06/09 01:32:31;;;;;;;14.88;4.85;;;15.70;82.30;15.60;98495.00;;;;4907132;28;87588;-60
2022/06/09 01:35:32;;;;;;;16.15;4.05;;;15.70;82.30;15.60;98488.00;;;;4906839;28;88921;-60
2022/06/09 01:37:59;;;;;;;15.63;4.30;;;15.60;82.60;15.60;98490.00;;;;4923717;28;87359;-60
2022/06/09 01:40:27;;;;;;;12.45;4.20;;;15.60;82.70;15.60;98494.00;;;;4909435;28;87079;-60
2022/06/09 01:42:56;;;;;;;15.75;4.32;;;15.60;83.00;15.60;98483.00;;;;4900148;28;86221;-60
2022/06/09 01:45:42;;;;;;;11.50;4.60;;;15.60;83.20;15.60;98482.00;;;;4904861;28;87653;-61
2022/06/09 01:48:13;;;;;;;14.15;4.22;;;15.60;83.80;15.60;98482.00;;;;4888029;28;87304;-60
2022/06/09 01:50:54;;;;;;;10.38;4.65;;;15.60;83.60;15.70;98480.00;;;;4905299;28;88191;-60
2022/06/09 01:53:52;;;;;;;16.10;4.70;;;15.70;83.70;15.90;98473.00;;;;4888442;28;87004;-60
2022/06/09 01:56:53;;;;;;;13.73;4.38;;;15.90;83.60;16.70;98475.00;;;;4887597;28;87703;-60
2022/06/09 01:59:30;;;;;;;12.60;4.65;;;16.50;82.50;17.80;98488.00;;;;4894719;28;88525;-61
2022/06/09 02:02:33;;;;;;;10.82;4.57;;;17.40;80.20;18.80;98480.00;;;;4888605;28;86915;-61
2022/06/09 02:05:05;;;;;;;19.80;5.30;;;18.30;77.70;19.60;98478.00;;;;4844394;28;87234;-61
2022/06/09 02:07:34;;;;;;;12.30;4.47;;;19.10;74.90;20.20;98471.00;;;;4904252;28;87814;-60
2022/06/09 02:10:22;;;;;;;17.98;5.20;;;19.60;72.90;20.70;98477.00;;;;4887318;28;88533;-60
2022/06/09 02:12:50;;;;;;;17.73;5.53;;;20.20;72.00;21.30;98473.00;;;;4883712;28;88046;-60
2022/06/09 02:15:34;;;;;;;20.48;5.32;;;20.70;70.00;21.80;98477.00;;;;4887816;28;87140;-60
2022/06/09 02:18:08;;;;;;;23.92;5.28;;;21.20;68.80;22.10;98477.00;;;;4904054;28;89591;-61
2022/06/09 02:20:37;;;;;;;20.15;5.07;;;21.60;67.30;22.30;98484.00;;;;4904932;28;88494;-61
2022/06/09 02:23:03;;;;;;;15.52;5.03;;;21.80;66.70;22.80;98487.00;;;;4904606;28;86949;-61
2022/06/09 02:25:29;;;;;;;20.05;5.05;;;22.30;65.60;23.20;98486.00;;;;4904966;28;87019;-61
2022/06/09 02:27:55;;;;;;;12.70;5.13;;;22.60;64.30;23.20;98488.00;;;;4903891;28;87742;-61
2022/06/09 02:30:21;;;;;;;12.32;5.07;;;22.60;64.00;23.30;98488.00;;;;4900131;28;87227;-61
2022/06/09 02:32:47;;;;;;;15.55;5.43;;;22.70;62.80;23.50;98486.00;;;;4903312;28;87371;-61
2022/06/09 02:35:13;;;;;;;16.20;4.93;;;22.80;62.90;23.70;98486.00;;;;4903447;28;86307;-61
2022/06/09 02:37:40;;;;;;;12.80;4.78;;;23.10;63.00;23.80;98492.00;;;;4902394;28;87966;-61
2022/06/09 02:40:07;;;;;;;20.40;5.95;;;23.20;62.40;24.00;98485.00;;;;4915528;28;87873;-60
2022/06/09 02:42:33;;;;;;;18.92;5.30;;;23.40;63.40;24.20;98491.00;;;;4921007;28;88984;-62
2022/06/09 02:45:02;;;;;;;18.85;5.20;;;23.60;63.90;24.60;98500.00;;;;4906219;28;87283;-61
2022/06/09 02:47:29;;;;;;;13.98;4.93;;;24.10;65.00;25.30;98494.00;;;;4919961;28;88739;-61
2022/06/09 02:49:56;;;;;;;21.63;5.03;;;24.70;66.30;25.70;98493.00;;;;4923130;28;87642;-62
2022/06/09 02:52:22;;;;;;;14.82;5.15;;;25.10;65.10;26.10;98499.00;;;;4923211;28;87000;-61
2022/06/09 02:54:48;;;;;;;15.13;5.18;;;25.40;66.30;26.40;98498.00;;;;4923665;28;87364;-61
2022/06/09 02:57:15;;;;;;;15.90;5.25;;;25.50;67.60;26.50;98502.00;;;;4899361;28;88120;-60
2022/06/09 02:59:41;;;;;;;16.25;5.53;;;25.70;68.00;26.80;98496.00;;;;4923011;28;87245;-60
2022/06/09 03:02:07;;;;;;;14.10;5.65;;;26.10;61.80;26.80;98493.00;;;;4923440;28;87485;-61
2022/06/09 03:04:33;;;;;;;12.50;4.95;;;26.00;59.10;26.40;98505.00;;;;4921505;28;87063;-61
2022/06/09 03:07:00;;;;;;;13.35;5.53;;;25.80;59.60;26.60;98496.00;;;;4920164;28;88517;-60
2022/06/09 03:09:27;;;;;;;15.30;5.85;;;26.00;63.10;26.90;98503.00;;;;4900235;28;89352;-60
2022/06/09 03:11:53;;;;;;;12.98;5.50;;;25.90;63.60;27.20;98507.00;;;;4923184;28;87130;-61
2022/06/09 03:14:19;;;;;;;18.55;5.68;;;26.30;64.30;27.40;98501.00;;;;4922953;28;87048;-61
2022/06/09 03:16:45;;;;;;;17.45;5.15;;;26.60;63.30;27.70;98500.00;;;;4923173;28;87786;-61
2022/06/09 03:19:11;;;;;;;15.23;5.78;;;26.90;62.90;27.90;98494.00;;;;4905885;28;87447;-60
2022/06/09 03:21:37;;;;;;;20.98;6.65;;;27.20;61.30;27.90;98500.00;;;;4922413;28;86931;-60
2022/06/09 03:24:04;;;;;;;18.95;6.13;;;27.20;61.40;27.60;98501.00;;;;4921735;28;86530;-61
2022/06/09 03:26:30;;;;;;;17.98;6.32;;;27.00;61.70;27.60;98507.00;;;;4922184;28;88048;-60
2022/06/09 03:28:56;;;;;;;22.00;5.78;;;27.00;62.60;27.70;98515.00;;;;4918195;28;87358;-60
2022/06/09 03:31:22;;;;;;;16.13;5.85;;;27.00;64.70;27.70;98504.00;;;;4921596;28;87972;-61
2022/06/09 03:33:49;;;;;;;18.40;6.03;;;26.80;65.80;27.70;98498.00;;;;4921338;28;87499;-61
2022/06/09 03:36:16;;;;;;;24.35;6.35;;;27.00;64.70;28.10;98514.00;;;;4904860;28;88833;-61
2022/06/09 03:38:42;;;;;;;21.95;6.57;;;27.30;64.00;28.00;98504.00;;;;4920803;28;88602;-60
2022/06/09 03:41:08;;;;;;;21.05;6.40;;;27.20;63.10;28.10;98512.00;;;;4903061;28;87096;-61
2022/06/09 03:43:35;;;;;;;17.60;6.82;;;27.40;63.30;28.30;98508.00;;;;4902622;28;87023;-61
2022/06/09 03:46:02;;;;;;;17.00;6.85;;;27.50;62.30;28.10;98514.00;;;;4902718;28;87586;-61
2022/06/09 03:48:29;;;;;;;17.73;5.78;;;27.30;61.40;28.10;98507.00;;;;4902965;28;87272;-61
2022/06/09 03:50:56;;;;;;;20.98;6.97;;;27.30;62.70;28.10;98507.00;;;;4903115;28;87125;-61
2022/06/09 03:53:22;;;;;;;26.60;7.38;;;27.30;61.70;27.90;98506.00;;;;4903044;28;87225;-61
2022/06/09 03:55:48;;;;;;;14.38;5.93;;;27.00;61.70;27.80;98507.00;;;;4902242;28;88584;-60
2022/06/09 03:58:14;;;;;;;20.75;6.22;;;27.00;61.50;27.80;98507.00;;;;4901817;28;88132;-61
2022/06/09 04:00:40;;;;;;;20.10;6.32;;;27.00;61.30;27.40;98511.00;;;;4870675;28;87590;-61
2022/06/09 04:03:07;;;;;;;23.23;7.38;;;26.50;62.30;27.30;98509.00;;;;4903163;28;86989;-61
2022/06/09 04:05:33;;;;;;;22.92;7.20;;;26.40;65.20;27.40;98499.00;;;;4897367;28;87657;-60
2022/06/09 04:08:01;;;;;;;26.50;7.45;;;26.40;65.60;27.20;98519.00;;;;4876749;28;87561;-60
2022/06/09 04:10:31;;;;;;;17.63;6.07;;;26.30;65.40;27.10;98509.00;;;;4885466;28;87096;-61
2022/06/09 04:12:58;;;;;;;16.52;6.18;;;26.20;63.60;26.90;98511.00;;;;4902953;28;86975;-61
2022/06/09 04:15:24;;;;;;;15.70;6.53;;;26.00;63.60;27.00;98507.00;;;;4887871;28;87503;-61
2022/06/09 04:17:52;;;;;;;19.70;6.75;;;26.10;64.70;27.00;98501.00;;;;4905999;28;88545;-61
2022/06/09 04:20:23;;;;;;;17.70;6.43;;;26.10;65.30;27.00;98503.00;;;;4905674;28;88551;-62
2022/06/09 04:22:49;;;;;;;16.63;6.90;;;26.00;65.70;27.10;98506.00;;;;4905793;28;87561;-61
2022/06/09 04:25:18;;;;;;;18.38;6.95;;;26.20;65.70;27.20;98503.00;;;;4906456;28;87613;-61
2022/06/09 04:27:45;;;;;;;21.33;6.47;;;26.30;65.80;27.20;98513.00;;;;4888516;28;87548;-61
2022/06/09 04:30:13;;;;;;;18.70;6.32;;;26.20;66.30;27.30;98505.00;;;;4905677;28;87114;-61
2022/06/09 04:32:39;;;;;;;15.70;5.68;;;26.40;65.50;27.40;98511.00;;;;4904282;28;87110;-61
2022/06/09 04:35:06;;;;;;;19.40;6.22;;;26.50;64.80;26.90;98505.00;;;;4904289;28;87700;-61
2022/06/09 04:40:17;;;;;;;19.17;6.38;;;26.00;67.40;27.00;98505.00;;;;4918725;28;86996;-61
2022/06/09 04:42:43;;;;;;;20.05;6.68;;;26.00;67.90;26.70;98511.00;;;;4924592;28;86904;-61
2022/06/09 04:45:10;;;;;;;17.88;6.70;;;25.70;68.90;26.70;98512.00;;;;4906867;28;89581;-61
2022/06/09 04:47:36;;;;;;;18.92;6.35;;;25.80;68.70;27.30;98516.00;;;;4924291;28;87810;-61
2022/06/09 04:50:03;;;;;;;16.70;5.43;;;26.20;68.70;27.50;98516.00;;;;4924814;28;87006;-61
2022/06/09 04:52:29;;;;;;;15.40;5.57;;;26.50;66.60;27.40;98522.00;;;;4925037;28;88023;-61
2022/06/09 04:54:56;;;;;;;18.08;6.43;;;26.40;66.50;27.70;98525.00;;;;4925002;28;87756;-62
2022/06/09 04:57:22;;;;;;;21.02;6.45;;;26.60;67.20;27.90;98522.00;;;;4924122;28;87255;-61
2022/06/09 04:59:48;;;;;;;16.05;5.97;;;26.90;67.10;27.90;98527.00;;;;4924905;28;86952;-61
2022/06/09 05:02:15;;;;;;;16.65;5.85;;;26.90;64.90;27.40;98526.00;;;;4925464;28;86328;-61
2022/06/09 05:04:41;;;;;;;16.80;6.90;;;26.40;65.00;27.20;98529.00;;;;4906972;28;87504;-60
2022/06/09 05:07:08;;;;;;;13.95;5.68;;;26.20;66.40;27.10;98522.00;;;;4907178;28;90372;-62
2022/06/09 05:09:34;;;;;;;17.02;5.88;;;26.20;64.30;27.10;98524.00;;;;4918584;28;88448;-60
2022/06/09 05:12:01;;;;;;;19.83;5.05;;;26.00;64.00;26.80;98534.00;;;;4924015;28;87083;-62
2022/06/09 05:14:27;;;;;;;11.10;6.45;;;25.90;63.20;27.10;98517.00;;;;4924635;28;88121;-62
2022/06/09 05:16:53;;;;;;;11.95;4.38;;;26.10;62.30;27.40;98518.00;;;;4924048;28;87389;-62
2022/06/09 05:19:19;;;;;;;12.98;4.07;;;26.30;61.10;27.50;98525.00;;;;4924109;28;87023;-62
2022/06/09 05:21:46;;;;;;;10.57;4.28;;;26.40;60.70;27.50;98528.00;;;;4924476;28;87067;-62
2022/06/09 05:24:12;;;;;;;12.77;4.18;;;26.40;61.10;27.70;98523.00;;;;4916787;28;87703;-62
2022/06/09 05:26:38;;;;;;;12.95;4.40;;;26.60;61.80;28.30;98517.00;;;;4907062;28;87489;-63
2022/06/09 05:29:06;;;;;;;13.55;4.68;;;27.30;61.50;29.30;98520.00;;;;4907079;28;87010;-66
2022/06/09 05:31:32;;;;;;;11.68;4.65;;;28.20;59.10;29.50;98527.00;;;;4905461;28;87125;-61
2022/06/09 05:33:58;;;;;;;11.75;3.80;;;28.50;58.60;29.50;98529.00;;;;4921829;28;89753;-61
2022/06/09 05:36:24;;;;;;;10.35;4.40;;;28.60;57.40;29.10;98520.00;;;;4923431;28;88926;-60
2022/06/09 05:47:05;;;;;;;12.80;3.80;;;27.90;57.00;28.20;98519.00;;;;4902822;28;87782;-61
2022/06/09 05:49:31;;;;;;;11.45;3.88;;;27.50;58.30;28.20;98514.00;;;;4887505;28;87320;-61
2022/06/09 05:51:57;;;;;;;10.98;3.13;;;27.40;57.40;28.70;98521.00;;;;4904741;28;86750;-60
2022/06/09 05:54:24;;;;;;;9.13;3.63;;;27.80;56.30;29.10;98516.00;;;;4903642;28;87799;-61
2022/06/09 05:56:50;;;;;;;11.18;3.72;;;28.00;55.10;29.70;98518.00;;;;4903661;28;87433;-61
2022/06/09 05:59:17;;;;;;;12.10;3.30;;;28.70;54.20;29.60;98514.00;;;;4902073;28;87929;-61
2022/06/09 06:01:43;;;;;;;15.38;3.85;;;28.50;54.50;29.00;98505.00;;;;4900017;28;87544;-61
2022/06/09 06:04:11;;;;;;;9.80;3.80;;;28.00;54.00;29.00;98515.00;;;;4902901;28;87606;-61
2022/06/09 06:06:37;;;;;;;11.65;4.40;;;28.10;54.50;29.40;98520.00;;;;4904410;28;87415;-61
2022/06/09 06:09:13;;;;;;;11.68;3.95;;;28.50;54.00;29.50;98510.00;;;;4887096;28;87170;-62
2022/06/09 06:11:40;;;;;;;12.88;4.05;;;28.60;54.20;29.70;98511.00;;;;4904395;28;87506;-62
2022/06/09 06:14:08;;;;;;;9.77;3.15;;;28.80;53.90;29.30;98515.00;;;;4904079;28;87575;-62
2022/06/09 06:16:35;;;;;;;11.65;3.20;;;28.30;53.00;29.20;98506.00;;;;4905212;28;87243;-62
2022/06/09 06:19:02;;;;;;;5.75;2.60;;;28.40;52.80;28.40;98502.00;;;;4904472;28;87407;-60
2022/06/09 06:21:28;;;;;;;7.75;2.60;;;27.50;51.40;28.20;98511.00;;;;4904326;28;87040;-61
2022/06/09 06:23:55;;;;;;;16.38;3.20;;;27.30;51.60;28.10;98509.00;;;;4903545;28;89016;-61
2022/06/09 06:26:22;;;;;;;7.60;2.90;;;27.20;51.80;27.80;98503.00;;;;4904205;28;88306;-61
2022/06/09 06:28:48;;;;;;;8.25;2.65;;;27.00;53.10;27.50;98510.00;;;;4887117;28;87071;-61
2022/06/09 06:31:14;;;;;;;7.10;1.70;;;26.80;52.80;27.00;98508.00;;;;4903546;28;87098;-61
2022/06/09 06:33:40;;;;;;;9.80;1.80;;;26.40;50.30;25.90;98508.00;;;;4902387;28;88788;-61
2022/06/09 06:36:07;;;;;;;8.23;1.77;;;25.70;51.30;25.20;98507.00;;;;4903119;28;87333;-62
2022/06/09 06:38:33;;;;;;;5.80;2.15;;;24.90;52.10;25.10;98506.00;;;;4886970;28;87311;-61
2022/06/09 06:40:59;;;;;;;6.60;1.80;;;25.00;52.60;25.00;98501.00;;;;4903631;28;86477;-61
2022/06/09 06:43:25;;;;;;;6.03;2.03;;;25.00;52.80;24.90;98500.00;;;;4903009;28;87693;-61
2022/06/09 06:45:52;;;;;;;7.28;1.88;;;24.80;53.20;24.40;98505.00;;;;4903351;28;87310;-61
2022/06/09 06:48:18;;;;;;;10.15;2.22;;;24.40;53.70;24.30;98504.00;;;;4903471;28;87846;-61
2022/06/09 06:50:44;;;;;;;4.38;1.73;;;24.20;53.70;24.60;98505.00;;;;4903847;28;87057;-61
2022/06/09 06:53:12;;;;;;;3.80;1.60;;;24.60;53.70;24.80;98500.00;;;;4903835;28;87515;-60
2022/06/09 06:55:40;;;;;;;7.43;1.70;;;24.90;53.30;24.80;98495.00;;;;4902888;28;88252;-60
2022/06/09 06:58:06;;;;;;;2.80;1.50;;;24.80;53.20;24.50;98511.00;;;;4903092;28;86881;-61
2022/06/09 07:00:34;;;;;;;7.40;2.00;;;24.40;53.50;24.30;98508.00;;;;4903374;28;87007;-60
2022/06/09 07:03:01;;;;;;;4.63;2.20;;;24.30;54.60;24.20;98509.00;;;;4886049;28;87613;-61
2022/06/09 07:05:27;;;;;;;4.75;1.55;;;24.10;54.10;23.90;98502.00;;;;4902299;28;87217;-60
2022/06/09 07:07:56;;;;;;;4.05;1.50;;;23.90;53.90;24.10;98493.00;;;;4902203;28;87064;-60
2022/06/09 07:10:23;;;;;;;3.20;1.67;;;24.00;53.20;24.10;98497.00;;;;4902273;28;87186;-61
2022/06/09 07:12:49;;;;;;;7.28;2.03;;;24.10;54.20;24.10;98496.00;;;;4902392;28;88499;-60
2022/06/09 07:15:16;;;;;;;4.90;1.90;;;24.10;54.10;24.10;98501.00;;;;4902792;28;88432;-61
2022/06/09 07:17:42;;;;;;;6.85;1.70;;;24.10;53.70;24.20;98496.00;;;;4902775;28;87041;-60
2022/06/09 07:20:12;;;;;;;4.07;1.48;;;24.20;52.40;24.20;98497.00;;;;4902930;28;87256;-62
2022/06/09 07:22:38;;;;;;;4.10;1.50;;;24.20;53.40;24.30;98500.00;;;;4902629;28;88693;-60
2022/06/09 07:25:05;;;;;;;3.97;1.60;;;24.30;54.60;24.30;98501.00;;;;4902935;28;87341;-60
2022/06/09 07:27:31;;;;;;;6.15;1.63;;;24.40;54.60;24.30;98501.00;;;;4899045;28;87037;-60
2022/06/09 07:29:57;;;;;;;6.22;1.45;;;24.40;54.00;24.40;98491.00;;;;4885674;28;86373;-60
2022/06/09 07:32:24;;;;;;;4.97;1.63;;;24.30;53.50;24.10;98500.00;;;;4900102;28;87972;-60
2022/06/09 07:34:50;;;;;;;6.55;1.92;;;24.00;52.20;24.20;98495.00;;;;4899162;28;87091;-61
2022/06/09 07:37:17;;;;;;;5.00;1.65;;;24.10;53.30;24.20;98500.00;;;;4902214;28;88285;-61
2022/06/09 07:39:43;;;;;;;2.45;1.20;;;24.10;53.30;24.30;98493.00;;;;4911141;28;86993;-61
2022/06/09 07:42:09;;;;;;;6.57;1.45;;;24.20;53.30;24.40;98507.00;;;;4922385;28;87893;-61
2022/06/09 07:44:36;;;;;;;7.63;1.48;;;24.30;52.70;24.30;98502.00;;;;4922329;28;87092;-60
2022/06/09 07:47:05;;;;;;;5.28;1.30;;;24.20;52.60;24.50;98501.00;;;;4922254;28;87021;-62
2022/06/09 07:49:33;;;;;;;3.28;1.55;;;24.40;52.90;24.50;98508.00;;;;4922132;28;87059;-60
2022/06/09 07:52:00;;;;;;;5.63;1.45;;;24.40;52.80;24.40;98504.00;;;;4925226;28;88269;-60
2022/06/09 07:54:26;;;;;;;5.68;1.50;;;24.30;52.40;24.20;98504.00;;;;4925916;28;87514;-62
2022/06/09 07:56:52;;;;;;;5.45;1.50;;;24.00;52.00;24.30;98503.00;;;;4922896;28;87082;-59
2022/06/09 07:59:19;;;;;;;2.60;1.40;;;24.10;53.30;24.30;98497.00;;;;4924631;28;87089;-57
2022/06/09 08:01:46;;;;;;;9.55;1.50;;;24.20;53.40;24.20;98489.00;;;;4924766;28;88731;-56
2022/06/09 08:04:13;;;;;;;8.80;2.28;;;24.10;53.90;24.20;98500.00;;;;4904188;28;88314;-55
2022/06/09 08:06:39;;;;;;;8.75;1.98;;;24.00;53.50;24.20;98500.00;;;;4908127;28;87113;-52
2022/06/09 08:09:06;;;;;;;6.30;1.58;;;24.00;54.70;24.40;98499.00;;;;4908059;28;88216;-58
2022/06/09 08:11:37;;;;;;;7.38;1.63;;;24.30;53.90;24.40;98497.00;;;;4924455;28;87879;-56
2022/06/09 08:14:05;;;;;;;3.00;1.50;;;24.30;53.70;24.40;98502.00;;;;4921058;28;88533;-53
2022/06/09 08:16:33;;;;;;;7.18;1.75;;;24.20;53.70;24.50;98491.00;;;;4924947;28;87501;-53
2022/06/09 08:18:59;;;;;;;8.95;1.63;;;24.40;53.50;24.50;98500.00;;;;4925648;28;86245;-54
2022/06/09 08:21:27;;;;;;;8.70;1.88;;;24.40;53.80;24.50;98498.00;;;;4924571;28;87721;-54
2022/06/09 08:23:54;;;;;;;5.85;1.80;;;24.40;55.10;24.70;98493.00;;;;4921249;28;87885;-52
2022/06/09 08:26:21;;;;;;;3.97;1.52;;;24.60;54.50;24.80;98486.00;;;;4924421;28;87934;-53
2022/06/09 08:28:47;;;;;;;4.63;1.60;;;24.70;54.90;24.90;98488.00;;;;4905976;28;87067;-56
2022/06/09 08:31:13;;;;;;;3.58;1.52;;;24.80;54.50;24.90;98493.00;;;;4923680;28;88708;-53
2022/06/09 08:33:39;;;;;;;6.22;1.60;;;24.80;52.80;24.90;98504.00;;;;4906851;28;87546;-53
2022/06/09 08:36:06;;;;;;;5.07;1.73;;;24.70;53.90;24.80;98491.00;;;;4907204;28;87642;-57
2022/06/09 08:38:33;;;;;;;2.92;1.50;;;24.70;54.10;24.90;98494.00;;;;4924378;28;87051;-55
2022/06/09 08:41:35;;;;;;;7.35;1.70;;;24.70;55.00;25.00;98485.00;;;;4905344;28;88618;-54
2022/06/09 08:44:36;;;;;;;9.63;1.85;;;24.90;54.40;25.10;98490.00;;;;4904019;28;87105;-54
2022/06/09 08:47:11;;;;;;;6.30;1.63;;;25.00;54.10;25.20;98494.00;;;;4888119;28;87179;-54
2022/06/09 08:49:56;;;;;;;5.68;1.60;;;25.10;55.10;25.20;98489.00;;;;4905274;28;87388;-55
2022/06/09 08:52:33;;;;;;;4.03;1.60;;;25.10;54.90;24.90;98502.00;;;;4902299;28;88514;-54
2022/06/09 08:55:19;;;;;;;6.07;1.83;;;24.80;55.10;24.80;98477.00;;;;4885974;28;88461;-57
2022/06/09 08:57:46;;;;;;;5.47;1.73;;;24.60;55.50;24.90;98485.00;;;;4897263;28;88021;-53
2022/06/09 09:00:18;;;;;;;7.20;2.20;;;24.70;55.70;24.90;98488.00;;;;4904388;28;86895;-54
2022/06/09 09:02:57;;;;;;;3.92;1.77;;;24.70;55.80;24.90;98477.00;;;;4903986;28;87537;-57
2022/06/09 09:06:09;;;;;;;3.38;1.63;;;24.70;55.60;24.60;98477.00;;;;4888069;28;87870;-55
2022/06/09 09:08:38;;;;;;;5.15;1.83;;;24.50;55.50;24.70;98477.00;;;;4883061;28;87875;-57
2022/06/09 09:11:42;;;;;;;5.60;1.90;;;24.50;55.50;24.80;98473.00;;;;4903187;28;86897;-54
2022/06/09 09:14:32;;;;;;;5.50;1.80;;;24.50;55.80;24.90;98472.00;;;;4884923;28;87645;-55
2022/06/09 09:17:26;;;;;;;5.20;1.60;;;24.80;55.70;25.20;98477.00;;;;4904517;28;88339;-56
2022/06/09 09:20:04;;;;;;;7.78;1.75;;;25.00;55.30;25.30;98473.00;;;;4887386;28;88036;-55
2022/06/09 09:22:40;;;;;;;6.45;1.83;;;25.20;55.30;25.30;98467.00;;;;4904541;28;86937;-59
2022/06/09 09:25:54;;;;;;;4.57;2.10;;;25.20;55.80;25.40;98459.00;;;;4904475;28;87696;-57
2022/06/09 09:28:30;;;;;;;4.85;1.92;;;25.30;56.30;25.40;98467.00;;;;4902855;28;87458;-55
2022/06/09 09:31:21;;;;;;;5.95;2.00;;;25.20;55.40;25.30;98471.00;;;;4888393;28;87091;-56
2022/06/09 09:33:47;;;;;;;4.28;1.95;;;25.10;54.90;25.40;98464.00;;;;4898434;28;86956;-54
2022/06/09 09:36:35;;;;;;;5.63;1.75;;;25.20;55.10;25.50;98463.00;;;;4905170;28;87573;-56
2022/06/09 09:39:22;;;;;;;3.95;1.60;;;25.20;55.50;25.40;98467.00;;;;4908393;28;87353;-55
2022/06/09 09:41:56;;;;;;;5.28;1.70;;;25.20;55.50;25.40;98464.00;;;;4920138;28;88007;-54
2022/06/09 09:44:27;;;;;;;5.47;1.50;;;25.20;55.90;25.20;98477.00;;;;4923236;28;87397;-56
2022/06/09 09:47:00;;;;;;;1.80;1.50;;;24.90;55.30;25.20;98477.00;;;;4905081;28;89736;-55
2022/06/09 09:49:43;;;;;;;2.17;1.50;;;25.00;54.80;25.30;98456.00;;;;4923546;28;88199;-58
2022/06/09 09:52:46;;;;;;;2.95;1.42;;;25.10;54.60;25.40;98462.00;;;;4923690;28;87052;-56
2022/06/09 09:55:36;;;;;;;3.63;1.80;;;25.20;54.80;25.50;98448.00;;;;4891159;28;87254;-56
2022/06/09 09:58:39;;;;;;;4.80;2.10;;;25.30;55.40;25.30;98465.00;;;;4920088;28;88219;-55
2022/06/09 10:01:17;;;;;;;7.57;2.15;;;25.20;55.30;25.30;98455.00;;;;4922106;28;87700;-60
2022/06/09 10:10:22;;;;;;;4.88;1.80;;;25.20;55.30;25.40;98444.00;;;;4918536;28;87613;-57
2022/06/09 10:12:48;;;;;;;2.67;1.70;;;25.10;55.20;25.40;98448.00;;;;4921992;28;88350;-56
2022/06/09 10:15:19;;;;;;;5.13;1.80;;;25.20;55.50;25.50;98445.00;;;;4923044;28;88418;-53
2022/06/09 10:18:05;;;;;;;2.63;1.83;;;25.30;55.70;25.60;98444.00;;;;4905864;28;87524;-58
2022/06/09 10:20:38;;;;;;;5.72;2.08;;;25.30;55.90;25.50;98441.00;;;;4906527;28;87619;-54
2022/06/09 10:23:09;;;;;;;4.47;1.80;;;25.30;54.80;25.60;98441.00;;;;4905973;28;87366;-55
2022/06/09 10:26:12;;;;;;;2.67;1.67;;;25.40;55.30;25.70;98449.00;;;;4919074;28;88610;-56
2022/06/09 10:29:16;;;;;;;6.55;1.75;;;25.50;55.40;25.70;98446.00;;;;4922955;28;86936;-56
2022/06/09 10:31:53;;;;;;;3.65;1.75;;;25.50;55.40;25.70;98452.00;;;;4921512;28;88037;-55
2022/06/09 10:34:52;;;;;;;3.53;1.70;;;25.40;57.40;25.60;98448.00;;;;4905446;28;88414;-57
2022/06/09 10:37:53;;;;;;;5.70;1.98;;;25.30;55.60;25.60;98447.00;;;;4905079;28;88023;-55
2022/06/09 10:40:44;;;;;;;5.93;1.95;;;25.30;55.70;25.70;98439.00;;;;4908550;28;87033;-56
2022/06/09 10:43:39;;;;;;;3.55;2.00;;;25.40;55.80;25.80;98448.00;;;;4899683;28;88663;-55
2022/06/09 10:55:14;;;;;;;6.25;1.75;;;25.50;56.10;26.00;98440.00;;;;4887420;28;88516;-54
2022/06/09 10:56:01;;;;;;;5.28;2.00;;;25.70;55.90;26.00;98439.00;;;;4881524;28;90018;-57
2022/06/09 10:58:39;;;;;;;6.45;2.30;;;25.80;57.50;25.90;98433.00;;;;4882898;28;87452;-57
2022/06/09 11:01:07;;;;;;;5.60;1.88;;;25.70;56.30;25.90;98426.00;;;;4901798;28;87770;-54
2022/06/09 11:03:49;;;;;;;3.20;2.17;;;25.70;56.80;26.10;98422.00;;;;4903984;28;86674;-54
2022/06/09 11:06:34;;;;;;;6.38;2.22;;;25.80;56.30;26.20;98422.00;;;;4903505;28;87812;-59
2022/06/09 11:09:42;;;;;;;5.10;1.90;;;25.90;55.30;26.10;98419.00;;;;4854748;28;90402;-52
2022/06/09 11:12:20;;;;;;;12.68;2.67;;;25.90;56.30;26.10;98423.00;;;;4901803;28;88364;-56
2022/06/09 11:15:29;;;;;;;6.35;2.08;;;25.90;56.20;26.20;98419.00;;;;4886254;28;87251;-57
2022/06/09 11:18:22;;;;;;;5.10;1.88;;;26.10;56.50;26.40;98421.00;;;;4868110;28;90553;-57
2022/06/09 11:21:19;;;;;;;4.53;2.00;;;26.20;55.90;26.50;98416.00;;;;4901425;28;87528;-57
2022/06/09 11:24:20;;;;;;;7.75;2.33;;;26.30;55.70;26.50;98416.00;;;;4899353;28;86997;-57
2022/06/09 11:27:25;;;;;;;4.40;1.92;;;26.30;56.00;26.30;98420.00;;;;4899420;28;86959;-57
2022/06/09 11:30:03;;;;;;;3.53;2.30;;;26.10;54.80;26.30;98419.00;;;;4898870;28;87676;-54
2022/06/09 11:32:40;;;;;;;7.35;2.10;;;26.10;54.70;26.20;98431.00;;;;4900647;28;87250;-52
2022/06/09 11:35:12;;;;;;;5.68;2.47;;;25.90;55.80;26.30;98413.00;;;;4886064;28;87017;-57
2022/06/09 11:38:12;;;;;;;3.53;1.92;;;26.00;56.50;26.40;98421.00;;;;4899991;28;87537;-57
2022/06/09 11:40:56;;;;;;;4.72;2.08;;;26.20;55.30;26.50;98421.00;;;;4913465;28;88594;-57